Time;durP1;ratioP1;P1;durP2;ratioP2;P2;SDS_P1;SDS_P2;PMS_P1;PMS_P2;Temp;Humidity;BMP_temperature;BMP_pressure;BME280_temperature;BME280_humidity;BME280_pressure;Samples;Min_cycle;Max_cycle;Signal;HPM_P1;HPM_P2
2022/12/06 00:01:13;;;;;;;7.33;5.87;;;3.80;99.90;;;;;;5025989;28;20260;-74
2022/12/06 00:03:42;;;;;;;6.57;5.47;;;3.80;99.90;;;;;;5034169;28;20185;-76
2022/12/06 00:06:11;;;;;;;8.70;6.40;;;3.80;99.90;;;;;;5028854;28;20174;-75
2022/12/06 00:08:37;;;;;;;8.03;6.30;;;3.90;99.90;;;;;;5028544;28;20178;-74
2022/12/06 00:11:21;;;;;;;7.57;6.00;;;3.90;99.90;;;;;;5015716;28;20276;-75
2022/12/06 00:13:51;;;;;;;7.10;5.73;;;3.90;99.90;;;;;;5013561;28;20178;-75
2022/12/06 00:16:17;;;;;;;7.20;5.80;;;3.90;99.90;;;;;;5016355;28;20194;-75
2022/12/06 00:18:44;;;;;;;7.77;5.63;;;3.90;99.90;;;;;;5016270;28;20182;-74
2022/12/06 00:21:11;;;;;;;7.83;6.00;;;3.90;99.90;;;;;;5017220;28;20209;-75
2022/12/06 00:23:44;;;;;;;7.60;6.07;;;3.90;99.90;;;;;;5016583;28;20174;-75
2022/12/06 00:26:11;;;;;;;7.20;5.70;;;3.90;99.90;;;;;;5026829;28;20190;-74
2022/12/06 00:28:38;;;;;;;8.03;6.33;;;3.90;99.90;;;;;;5022996;28;20264;-75
2022/12/06 00:31:09;;;;;;;7.43;6.03;;;4.00;99.90;;;;;;5014110;28;20178;-75
2022/12/06 00:33:37;;;;;;;7.80;6.07;;;4.00;99.90;;;;;;5009863;28;20202;-76
2022/12/06 00:36:09;;;;;;;7.87;6.07;;;4.00;99.90;;;;;;5031931;28;20178;-74
2022/12/06 00:38:35;;;;;;;7.83;6.40;;;4.00;99.90;;;;;;5032775;28;20177;-75
2022/12/06 00:41:11;;;;;;;6.87;5.70;;;4.00;99.90;;;;;;5012563;28;20286;-73
2022/12/06 00:43:38;;;;;;;7.90;6.50;;;4.00;99.90;;;;;;5012422;28;20249;-74
2022/12/06 00:46:05;;;;;;;9.10;6.43;;;4.00;99.90;;;;;;5012109;28;20185;-74
2022/12/06 00:48:31;;;;;;;8.13;6.47;;;4.00;99.90;;;;;;5009178;28;20201;-74
2022/12/06 00:50:57;;;;;;;6.77;5.87;;;4.10;99.90;;;;;;5015190;28;20293;-75
2022/12/06 00:53:23;;;;;;;8.43;6.87;;;4.00;99.90;;;;;;5012912;28;20263;-75
2022/12/06 00:55:49;;;;;;;8.33;7.07;;;4.00;99.90;;;;;;5026808;28;20178;-75
2022/12/06 00:58:16;;;;;;;8.87;6.40;;;4.00;99.90;;;;;;5019991;28;20171;-75
2022/12/06 01:00:42;;;;;;;8.87;6.40;;;4.00;99.90;;;;;;5016154;28;20178;-71
2022/12/06 01:03:10;;;;;;;8.60;6.97;;;4.00;99.90;;;;;;5036594;28;20179;-74
2022/12/06 01:05:43;;;;;;;8.13;6.63;;;4.10;99.90;;;;;;5028085;28;20196;-75
2022/12/06 01:08:09;;;;;;;8.10;6.47;;;4.00;99.90;;;;;;5019109;28;20247;-74
2022/12/06 01:10:41;;;;;;;7.20;6.13;;;4.00;99.90;;;;;;5019993;28;20174;-74
2022/12/06 01:13:07;;;;;;;7.87;6.20;;;4.00;99.90;;;;;;5025407;28;20198;-75
2022/12/06 01:15:35;;;;;;;6.97;5.97;;;4.10;99.90;;;;;;5020040;28;20181;-74
2022/12/06 01:18:01;;;;;;;7.43;6.63;;;4.10;99.90;;;;;;5032120;28;20434;-73
2022/12/06 01:20:32;;;;;;;10.23;7.27;;;4.10;99.90;;;;;;5016819;28;20269;-75
2022/12/06 01:22:59;;;;;;;8.53;6.93;;;4.20;99.90;;;;;;5012502;28;20179;-75
2022/12/06 01:25:25;;;;;;;8.60;6.67;;;4.20;99.90;;;;;;5027130;28;20193;-75
2022/12/06 01:27:53;;;;;;;7.27;5.73;;;4.10;99.90;;;;;;5035089;28;20177;-74
2022/12/06 01:30:21;;;;;;;7.40;5.80;;;4.10;99.90;;;;;;5034237;28;20193;-75
2022/12/06 01:32:46;;;;;;;7.07;5.90;;;4.10;99.90;;;;;;5027700;28;20202;-75
2022/12/06 01:35:14;;;;;;;7.73;5.80;;;4.10;99.90;;;;;;5015755;28;20634;-75
2022/12/06 01:37:40;;;;;;;7.43;5.43;;;4.20;99.90;;;;;;5038680;28;20192;-75
2022/12/06 01:40:07;;;;;;;7.23;5.70;;;4.20;99.90;;;;;;5026707;28;20200;-75
2022/12/06 01:42:33;;;;;;;6.93;5.33;;;4.20;99.90;;;;;;5015110;28;20193;-74
2022/12/06 01:45:03;;;;;;;7.63;5.27;;;4.30;99.90;;;;;;5025142;28;20197;-88
2022/12/06 01:47:41;;;;;;;6.87;4.93;;;4.20;99.90;;;;;;5028284;28;20197;-89
2022/12/06 01:50:28;;;;;;;7.10;5.07;;;4.20;99.90;;;;;;5033448;28;20188;-87
2022/12/06 01:53:07;;;;;;;6.73;4.97;;;4.20;99.90;;;;;;5027821;28;20200;-89
2022/12/06 01:55:38;;;;;;;6.17;4.83;;;4.20;99.90;;;;;;5017389;28;20213;-89
2022/12/06 01:58:14;;;;;;;6.03;5.00;;;4.30;99.90;;;;;;5022767;28;20186;-81
2022/12/06 02:00:40;;;;;;;6.50;4.93;;;4.20;99.90;;;;;;5022749;28;20171;-89
2022/12/06 02:03:11;;;;;;;6.73;5.23;;;4.20;99.90;;;;;;5030592;28;20500;-87
2022/12/06 02:05:43;;;;;;;5.90;4.70;;;4.20;99.90;;;;;;5034387;28;20206;-89
2022/12/06 02:08:12;;;;;;;6.23;4.53;;;4.20;99.90;;;;;;5026754;28;20205;-82
2022/12/06 02:10:38;;;;;;;6.73;5.10;;;4.20;99.90;;;;;;5020006;28;20201;-88
2022/12/06 02:13:28;;;;;;;6.57;4.93;;;4.20;99.90;;;;;;5034342;28;20202;-86
2022/12/06 02:16:10;;;;;;;6.50;4.40;;;4.20;99.90;;;;;;5028024;28;20206;-88
2022/12/06 02:18:44;;;;;;;7.10;4.53;;;4.20;99.90;;;;;;5015814;28;20182;-90
2022/12/06 02:21:24;;;;;;;7.70;5.20;;;4.20;99.90;;;;;;5028564;28;20185;-86
2022/12/06 02:24:11;;;;;;;6.37;4.43;;;4.20;99.90;;;;;;5030046;28;20217;-86
2022/12/06 02:27:15;;;;;;;5.30;4.07;;;4.20;99.90;;;;;;5014050;28;20189;-88
2022/12/06 02:29:49;;;;;;;5.90;4.33;;;4.20;99.90;;;;;;5038143;28;20193;-88
2022/12/06 02:32:32;;;;;;;5.53;4.37;;;4.20;99.90;;;;;;5016860;28;20217;-89
2022/12/06 02:35:08;;;;;;;5.23;4.20;;;4.20;99.90;;;;;;5015363;28;20193;-89
2022/12/06 02:37:45;;;;;;;6.77;4.30;;;4.20;99.90;;;;;;5005951;28;20396;-90
2022/12/06 02:40:21;;;;;;;6.67;4.30;;;4.20;99.90;;;;;;5033616;28;20231;-87
2022/12/06 02:42:50;;;;;;;5.10;3.83;;;4.20;99.90;;;;;;5024598;28;20182;-86
2022/12/06 02:45:20;;;;;;;5.70;4.27;;;4.20;99.90;;;;;;5027371;28;20179;-87
2022/12/06 02:47:51;;;;;;;5.80;4.17;;;4.20;99.90;;;;;;5039593;28;20256;-89
2022/12/06 02:50:21;;;;;;;5.90;4.20;;;4.30;99.90;;;;;;5015768;28;20207;-92
2022/12/06 02:52:50;;;;;;;5.30;3.47;;;4.20;99.90;;;;;;5019302;28;20233;-90
2022/12/06 02:55:20;;;;;;;5.77;3.93;;;4.20;99.90;;;;;;5028523;28;20189;-90
2022/12/06 02:57:51;;;;;;;5.47;4.00;;;4.20;99.90;;;;;;5017095;28;20194;-89
2022/12/06 03:00:57;;;;;;;5.10;3.83;;;4.30;99.90;;;;;;5018476;28;20192;-91
2022/12/06 03:03:51;;;;;;;5.13;3.77;;;4.00;99.90;;;;;;5026687;28;20232;-75
2022/12/06 03:06:30;;;;;;;5.17;3.80;;;4.30;99.90;;;;;;5045945;28;20171;-77
2022/12/06 03:09:25;;;;;;;5.30;3.87;;;4.30;99.90;;;;;;5034946;28;20193;-75
2022/12/06 03:12:11;;;;;;;5.20;3.50;;;4.30;99.90;;;;;;5044203;28;20206;-80
2022/12/06 03:14:47;;;;;;;4.07;3.53;;;4.40;99.90;;;;;;5007138;28;20188;-75
2022/12/06 03:17:22;;;;;;;5.63;4.00;;;4.40;99.90;;;;;;5043589;28;20166;-79
2022/12/06 03:19:54;;;;;;;6.30;4.33;;;4.40;99.90;;;;;;5056002;28;20208;-84
2022/12/06 03:22:29;;;;;;;6.30;4.13;;;4.40;99.90;;;;;;5044060;28;20197;-73
2022/12/06 03:25:01;;;;;;;6.33;4.23;;;4.50;99.90;;;;;;5053673;28;20185;-74
2022/12/06 03:27:30;;;;;;;4.87;4.03;;;4.50;99.90;;;;;;5036207;28;20171;-75
2022/12/06 03:30:07;;;;;;;6.27;4.13;;;4.50;99.90;;;;;;5034931;28;20201;-74
2022/12/06 03:32:35;;;;;;;5.67;4.17;;;4.50;99.90;;;;;;5038856;28;20210;-83
2022/12/06 03:35:08;;;;;;;5.70;4.47;;;4.50;99.90;;;;;;5054013;28;20195;-74
2022/12/06 03:37:37;;;;;;;6.17;4.00;;;4.50;99.90;;;;;;5033668;28;20186;-89
2022/12/06 03:40:18;;;;;;;6.63;4.53;;;4.50;99.90;;;;;;5032788;28;20181;-86
2022/12/06 03:42:50;;;;;;;6.00;4.47;;;4.50;99.90;;;;;;5047636;28;20178;-82
2022/12/06 03:45:17;;;;;;;6.13;4.10;;;4.50;99.90;;;;;;5049250;28;20265;-80
2022/12/06 03:47:56;;;;;;;5.20;4.00;;;4.60;99.90;;;;;;5040400;28;20198;-75
2022/12/06 03:50:36;;;;;;;6.60;4.27;;;4.60;99.90;;;;;;5037195;28;20200;-73
2022/12/06 03:53:04;;;;;;;7.33;4.40;;;4.60;99.90;;;;;;5042500;28;20227;-74
2022/12/06 03:55:35;;;;;;;4.80;4.30;;;4.60;99.90;;;;;;5037436;28;20167;-75
2022/12/06 03:58:01;;;;;;;7.27;4.70;;;4.60;99.90;;;;;;5054422;28;20193;-74
2022/12/06 04:00:27;;;;;;;5.57;4.20;;;4.70;99.90;;;;;;5055755;28;20217;-78
2022/12/06 04:02:54;;;;;;;7.40;4.80;;;4.70;99.90;;;;;;5041267;28;20178;-77
2022/12/06 04:05:25;;;;;;;7.60;4.43;;;4.70;99.90;;;;;;5036634;28;20236;-74
2022/12/06 04:07:50;;;;;;;5.33;4.13;;;4.70;99.90;;;;;;5038130;28;20186;-74
2022/12/06 04:10:16;;;;;;;7.40;4.40;;;4.70;99.90;;;;;;5037457;28;20174;-76
2022/12/06 04:13:04;;;;;;;5.90;4.53;;;4.70;99.90;;;;;;5033913;28;20207;-74
2022/12/06 04:15:37;;;;;;;6.30;4.43;;;4.70;99.90;;;;;;5037058;28;20212;-77
2022/12/06 04:18:15;;;;;;;6.27;4.50;;;4.70;99.90;;;;;;5037705;28;20186;-77
2022/12/06 04:23:50;;;;;;;6.43;4.30;;;4.70;99.90;;;;;;5063455;28;20212;-74
2022/12/06 04:26:23;;;;;;;7.07;4.40;;;4.70;99.90;;;;;;5040304;28;20175;-77
2022/12/06 04:39:51;;;;;;;5.60;4.00;;;4.70;99.90;;;;;;5037321;28;20196;-88
2022/12/06 04:45:05;;;;;;;6.90;4.93;;;4.80;99.90;;;;;;5028117;28;20197;-88
2022/12/06 04:47:30;;;;;;;6.90;4.90;;;4.80;99.90;;;;;;5034159;28;20209;-88
2022/12/06 04:49:56;;;;;;;6.40;4.47;;;4.80;99.90;;;;;;5016588;28;20206;-89
2022/12/06 04:52:22;;;;;;;5.73;4.30;;;4.80;99.90;;;;;;5030036;28;20213;-89
2022/12/06 04:54:49;;;;;;;5.63;4.03;;;4.80;99.90;;;;;;5026539;28;20181;-87
2022/12/06 04:57:16;;;;;;;9.20;6.30;;;4.80;99.90;;;;;;5039881;28;20190;-90
2022/12/06 04:59:43;;;;;;;7.17;5.00;;;4.80;99.90;;;;;;5021940;28;20192;-89
2022/12/06 05:02:14;;;;;;;7.00;4.77;;;4.80;99.90;;;;;;5032353;28;20243;-88
2022/12/06 05:04:40;;;;;;;7.23;5.07;;;4.90;99.90;;;;;;5028049;28;20268;-82
2022/12/06 05:07:06;;;;;;;8.63;5.40;;;4.90;99.90;;;;;;5010822;28;20268;-88
2022/12/06 05:09:34;;;;;;;8.70;5.97;;;4.90;99.90;;;;;;5018107;28;20243;-87
2022/12/06 05:11:59;;;;;;;10.10;5.63;;;4.90;99.90;;;;;;5040085;28;20292;-88
2022/12/06 05:14:27;;;;;;;8.33;5.67;;;4.90;99.90;;;;;;5025071;28;20217;-83
2022/12/06 05:16:55;;;;;;;8.97;5.90;;;4.90;99.90;;;;;;5016386;28;20192;-87
2022/12/06 05:19:23;;;;;;;8.57;6.07;;;4.90;99.90;;;;;;5018206;28;20182;-86
2022/12/06 05:21:48;;;;;;;11.97;6.40;;;4.90;99.90;;;;;;5020967;28;20182;-89
2022/12/06 05:24:16;;;;;;;12.97;6.67;;;5.00;99.90;;;;;;5026289;28;20185;-90
2022/12/06 05:26:44;;;;;;;12.03;6.23;;;5.00;99.90;;;;;;5014963;28;20191;-85
2022/12/06 05:29:09;;;;;;;11.30;6.23;;;5.00;99.90;;;;;;5031148;28;20182;-89
2022/12/06 05:31:37;;;;;;;9.87;5.50;;;4.90;99.90;;;;;;5015213;28;20182;-88
2022/12/06 05:34:03;;;;;;;11.30;6.33;;;5.00;99.90;;;;;;5026116;28;20189;-89
2022/12/06 05:36:28;;;;;;;8.43;6.13;;;5.00;99.90;;;;;;5019245;28;20178;-88
2022/12/06 05:38:55;;;;;;;11.20;6.30;;;5.00;99.90;;;;;;5014957;28;20289;-89
2022/12/06 05:41:23;;;;;;;11.07;6.50;;;5.00;99.90;;;;;;5018012;28;20256;-89
2022/12/06 05:43:53;;;;;;;10.87;7.00;;;5.10;99.90;;;;;;5018755;28;20202;-88
2022/12/06 05:46:19;;;;;;;10.20;6.83;;;5.00;99.90;;;;;;5023048;28;20239;-89
2022/12/06 05:48:44;;;;;;;10.60;6.70;;;5.00;99.90;;;;;;5004369;28;20240;-89
2022/12/06 05:51:14;;;;;;;11.37;6.83;;;5.00;99.90;;;;;;5020794;28;20212;-88
2022/12/06 05:53:41;;;;;;;10.73;6.30;;;5.00;99.90;;;;;;5028156;28;20220;-89
2022/12/06 05:56:10;;;;;;;11.00;6.27;;;5.10;99.90;;;;;;5034529;28;20247;-88
2022/12/06 05:58:39;;;;;;;13.07;6.97;;;5.00;99.90;;;;;;5027101;28;20170;-83
2022/12/06 06:01:06;;;;;;;10.93;6.50;;;5.10;99.90;;;;;;5027549;28;20206;-88
2022/12/06 06:03:32;;;;;;;9.37;6.20;;;5.10;99.90;;;;;;5031410;28;20201;-88
2022/12/06 06:05:59;;;;;;;12.07;5.90;;;5.10;99.90;;;;;;5035160;28;20178;-86
2022/12/06 06:08:28;;;;;;;9.23;5.60;;;5.10;99.90;;;;;;5048398;28;20254;-87
2022/12/06 06:10:53;;;;;;;8.83;5.97;;;5.10;99.90;;;;;;5031546;28;20179;-82
2022/12/06 06:13:22;;;;;;;10.27;6.10;;;5.10;99.90;;;;;;5033018;28;20232;-88
2022/12/06 06:15:50;;;;;;;11.67;6.77;;;5.20;99.90;;;;;;5027814;28;20227;-87
2022/12/06 06:18:17;;;;;;;11.20;6.97;;;5.20;99.90;;;;;;5019359;28;20177;-88
2022/12/06 06:20:51;;;;;;;10.57;6.77;;;5.20;99.90;;;;;;5036511;28;20183;-89
2022/12/06 06:23:23;;;;;;;11.00;6.17;;;5.10;99.90;;;;;;5027069;28;20181;-88
2022/12/06 06:25:51;;;;;;;10.67;6.37;;;5.10;99.90;;;;;;5020395;28;20182;-87
2022/12/06 06:28:18;;;;;;;8.90;6.10;;;5.10;99.90;;;;;;5018850;28;20248;-78
2022/12/06 06:30:46;;;;;;;9.03;6.07;;;5.10;99.90;;;;;;5015627;28;20183;-76
2022/12/06 06:33:12;;;;;;;8.37;5.83;;;5.10;99.90;;;;;;5020920;28;20228;-87
2022/12/06 06:35:38;;;;;;;8.83;6.30;;;5.10;99.90;;;;;;5008994;28;20246;-88
2022/12/06 06:38:04;;;;;;;8.90;5.77;;;5.10;99.90;;;;;;5033160;28;20192;-87
2022/12/06 06:40:30;;;;;;;8.77;6.17;;;5.10;99.90;;;;;;5030374;28;20177;-87
2022/12/06 06:42:56;;;;;;;8.37;5.50;;;5.10;99.90;;;;;;5015657;28;20191;-87
2022/12/06 06:45:24;;;;;;;8.33;5.70;;;5.10;99.90;;;;;;5019592;28;20182;-82
2022/12/06 06:47:52;;;;;;;9.40;5.93;;;5.10;99.90;;;;;;5019299;28;20198;-86
2022/12/06 06:50:20;;;;;;;9.40;6.13;;;5.00;99.90;;;;;;5025768;28;20276;-84
2022/12/06 06:52:48;;;;;;;7.20;5.43;;;5.10;99.90;;;;;;5019512;28;20201;-87
2022/12/06 06:55:15;;;;;;;8.00;5.33;;;5.00;99.90;;;;;;5020034;28;20182;-86
2022/12/06 06:57:41;;;;;;;8.07;5.87;;;5.10;99.90;;;;;;5029609;28;20205;-82
2022/12/06 07:00:08;;;;;;;8.60;5.40;;;5.00;99.90;;;;;;5047424;28;20181;-86
2022/12/06 07:02:33;;;;;;;7.93;4.80;;;5.00;99.90;;;;;;5019364;28;20190;-87
2022/12/06 07:04:59;;;;;;;9.00;5.30;;;5.10;99.90;;;;;;5045158;28;20196;-88
2022/12/06 07:07:25;;;;;;;8.70;5.40;;;5.10;99.90;;;;;;5027055;28;20186;-85
2022/12/06 07:09:50;;;;;;;6.17;4.63;;;5.10;99.90;;;;;;5015764;28;20199;-87
2022/12/06 07:12:18;;;;;;;7.70;4.93;;;5.10;99.90;;;;;;5016308;28;20363;-87
2022/12/06 07:14:46;;;;;;;10.53;5.60;;;5.20;99.90;;;;;;5007008;28;20254;-86
2022/12/06 07:17:12;;;;;;;7.67;5.10;;;5.10;99.90;;;;;;5015778;28;20192;-88
2022/12/06 07:19:38;;;;;;;8.13;5.40;;;5.20;99.90;;;;;;5036025;28;20170;-87
2022/12/06 07:22:03;;;;;;;9.03;5.63;;;5.20;99.90;;;;;;5032313;28;20269;-87
2022/12/06 07:24:29;;;;;;;9.20;5.77;;;5.20;99.90;;;;;;5035212;28;20188;-87
2022/12/06 07:26:56;;;;;;;8.23;5.00;;;5.20;99.90;;;;;;5049970;28;20239;-87
2022/12/06 07:29:21;;;;;;;7.23;4.93;;;5.20;99.90;;;;;;5036823;28;20178;-87
2022/12/06 07:31:49;;;;;;;8.57;5.87;;;5.20;99.90;;;;;;5035405;28;20182;-87
2022/12/06 07:34:15;;;;;;;8.73;5.60;;;5.30;99.90;;;;;;5038575;28;20178;-86
2022/12/06 07:36:41;;;;;;;7.00;5.57;;;5.30;99.90;;;;;;5018864;28;20170;-88
2022/12/06 07:39:06;;;;;;;9.97;5.87;;;5.30;99.90;;;;;;5031010;28;20233;-87
2022/12/06 07:47:06;;;;;;;8.57;4.97;;;5.30;99.90;;;;;;5041003;28;20189;-87
2022/12/06 07:49:34;;;;;;;10.90;5.83;;;5.30;99.90;;;;;;5016439;28;20182;-88
2022/12/06 07:52:00;;;;;;;9.07;5.70;;;5.30;99.90;;;;;;5026949;28;20198;-88
2022/12/06 07:54:26;;;;;;;10.30;6.13;;;5.30;99.90;;;;;;5013229;28;20227;-86
2022/12/06 07:56:51;;;;;;;9.63;5.23;;;5.40;99.90;;;;;;5020163;28;20224;-87
2022/12/06 07:59:19;;;;;;;9.17;5.17;;;5.30;99.90;;;;;;5006777;28;20186;-86
2022/12/06 08:01:45;;;;;;;7.73;5.43;;;5.40;99.90;;;;;;5013757;28;20182;-88
2022/12/06 08:04:10;;;;;;;10.53;6.13;;;5.40;99.90;;;;;;5019265;28;20207;-87
2022/12/06 08:06:36;;;;;;;11.87;6.27;;;5.40;99.90;;;;;;5023581;28;20209;-84
2022/12/06 08:09:03;;;;;;;10.33;6.03;;;5.40;99.90;;;;;;5036211;28;20239;-89
2022/12/06 08:11:29;;;;;;;11.27;6.23;;;5.50;99.90;;;;;;5025368;28;20269;-88
2022/12/06 08:13:55;;;;;;;9.53;5.80;;;5.50;99.90;;;;;;5027984;28;20310;-88
2022/12/06 08:16:20;;;;;;;8.53;5.33;;;5.50;99.90;;;;;;5017673;28;20167;-88
2022/12/06 08:18:48;;;;;;;10.10;5.23;;;5.50;99.90;;;;;;5017875;28;20166;-88
2022/12/06 08:21:17;;;;;;;8.67;5.63;;;5.50;99.90;;;;;;5025741;28;20209;-84
2022/12/06 08:23:45;;;;;;;9.57;5.57;;;5.50;99.90;;;;;;5026702;28;20201;-89
2022/12/06 08:26:14;;;;;;;9.70;6.03;;;5.50;99.90;;;;;;5022359;28;20190;-89
2022/12/06 08:28:42;;;;;;;9.83;5.80;;;5.60;99.90;;;;;;5018189;28;20285;-88
2022/12/06 08:31:19;;;;;;;10.07;6.07;;;5.50;99.90;;;;;;5016823;28;20201;-89
2022/12/06 08:33:48;;;;;;;9.63;6.13;;;5.60;99.90;;;;;;5012099;28;20233;-89
2022/12/06 08:36:16;;;;;;;9.00;5.70;;;5.60;99.90;;;;;;5037623;28;20196;-87
2022/12/06 08:38:42;;;;;;;11.83;5.83;;;5.60;99.90;;;;;;5025463;28;20182;-86
2022/12/06 08:43:59;;;;;;;12.80;6.50;;;5.60;99.90;;;;;;5049591;28;20196;-79
2022/12/06 08:46:29;;;;;;;10.33;5.83;;;5.70;99.90;;;;;;5040922;28;20174;-85
2022/12/06 08:48:57;;;;;;;11.13;5.93;;;5.70;99.90;;;;;;5018830;28;20205;-87
2022/12/06 08:51:23;;;;;;;14.80;7.20;;;5.70;99.90;;;;;;5018571;28;20182;-87
2022/12/06 08:53:51;;;;;;;12.93;7.00;;;5.80;99.90;;;;;;5019498;28;20213;-88
2022/12/06 08:56:19;;;;;;;12.17;7.27;;;5.70;99.90;;;;;;5031173;28;20182;-88
2022/12/06 08:58:48;;;;;;;12.23;6.80;;;5.70;99.90;;;;;;5037366;28;20205;-83
2022/12/06 09:01:23;;;;;;;12.83;7.07;;;5.70;99.90;;;;;;5020435;28;20201;-88
2022/12/06 09:03:51;;;;;;;14.13;7.83;;;5.70;99.90;;;;;;5012434;28;20174;-88
2022/12/06 09:06:17;;;;;;;14.10;7.33;;;5.70;99.90;;;;;;5041879;28;20182;-87
2022/12/06 09:08:49;;;;;;;14.57;8.43;;;5.80;99.90;;;;;;5038791;28;20498;-86
2022/12/06 09:11:15;;;;;;;17.33;8.23;;;5.70;99.90;;;;;;5019771;28;20447;-89
2022/12/06 09:13:43;;;;;;;15.60;8.73;;;5.80;99.90;;;;;;5032276;28;20277;-88
2022/12/06 09:16:14;;;;;;;14.70;8.47;;;5.70;99.90;;;;;;5028003;28;20237;-89
2022/12/06 09:18:41;;;;;;;13.10;7.70;;;5.70;99.90;;;;;;5029717;28;20233;-87
2022/12/06 09:21:08;;;;;;;14.47;7.33;;;5.80;99.90;;;;;;5024954;28;20210;-89
2022/12/06 09:23:37;;;;;;;17.73;8.40;;;5.80;99.90;;;;;;5027435;28;20264;-89
2022/12/06 09:26:05;;;;;;;12.90;7.90;;;5.80;99.90;;;;;;5026204;28;20177;-85
2022/12/06 09:28:33;;;;;;;13.43;8.40;;;5.90;99.90;;;;;;5026552;28;20185;-89
2022/12/06 09:31:01;;;;;;;13.80;7.60;;;6.00;99.90;;;;;;5021348;28;20197;-90
2022/12/06 09:33:26;;;;;;;11.20;6.77;;;5.80;99.90;;;;;;5032216;28;20198;-87
2022/12/06 09:35:54;;;;;;;15.30;7.77;;;5.90;99.90;;;;;;5029767;28;20185;-90
2022/12/06 09:38:22;;;;;;;12.43;7.63;;;5.90;99.90;;;;;;5028731;28;20181;-90
2022/12/06 09:40:50;;;;;;;12.57;7.60;;;5.90;99.90;;;;;;5024461;28;20185;-89
2022/12/06 09:43:41;;;;;;;12.40;7.67;;;5.90;99.90;;;;;;5027096;28;20190;-90
2022/12/06 09:46:28;;;;;;;12.40;7.70;;;5.90;99.90;;;;;;5019862;28;20190;-90
2022/12/06 09:49:12;;;;;;;13.33;8.03;;;5.90;99.90;;;;;;5021518;28;20280;-89
2022/12/06 09:52:08;;;;;;;11.63;7.07;;;5.90;99.90;;;;;;5028819;28;20173;-88
2022/12/06 09:55:06;;;;;;;11.40;7.03;;;5.80;99.90;;;;;;5031422;28;20205;-74
2022/12/06 09:58:08;;;;;;;11.17;7.00;;;5.80;99.90;;;;;;5013633;28;20179;-75
2022/12/06 10:00:43;;;;;;;10.87;6.30;;;5.80;99.90;;;;;;4992697;28;20315;-74
2022/12/06 10:03:50;;;;;;;10.27;6.63;;;5.80;99.90;;;;;;5037426;28;20292;-75
2022/12/06 10:06:24;;;;;;;10.20;6.67;;;5.80;99.90;;;;;;5030245;28;20185;-75
2022/12/06 10:08:49;;;;;;;10.07;6.20;;;5.90;99.90;;;;;;5018105;28;20209;-74
2022/12/06 10:11:27;;;;;;;10.30;6.80;;;5.90;99.90;;;;;;5024754;28;20399;-74
2022/12/06 10:14:05;;;;;;;9.40;6.27;;;5.90;99.90;;;;;;5025088;28;20208;-74
2022/12/06 10:17:09;;;;;;;11.23;6.73;;;5.90;99.90;;;;;;5016154;28;20178;-74
2022/12/06 10:20:04;;;;;;;11.70;5.80;;;5.90;99.90;;;;;;5025913;28;20177;-74
2022/12/06 10:22:55;;;;;;;9.03;5.13;;;6.00;99.90;;;;;;5022684;28;20265;-74
2022/12/06 10:25:29;;;;;;;10.63;6.53;;;6.00;99.90;;;;;;5008271;28;20179;-75
2022/12/06 10:28:03;;;;;;;8.60;5.97;;;6.00;99.90;;;;;;5030075;28;20177;-75
2022/12/06 10:30:29;;;;;;;9.93;6.00;;;6.00;99.90;;;;;;5021617;28;20173;-74
2022/12/06 10:33:08;;;;;;;10.03;6.37;;;6.00;99.90;;;;;;5016313;28;20202;-75
2022/12/06 10:35:45;;;;;;;10.77;5.77;;;6.10;99.90;;;;;;5016623;28;20373;-75
2022/12/06 10:38:39;;;;;;;9.47;5.57;;;6.10;99.90;;;;;;5019382;28;20258;-75
2022/12/06 10:41:20;;;;;;;10.07;6.03;;;6.10;99.90;;;;;;5014064;28;20178;-75
2022/12/06 10:44:11;;;;;;;9.50;6.13;;;6.10;99.90;;;;;;5024773;28;20178;-75
2022/12/06 10:47:07;;;;;;;8.80;5.40;;;6.10;99.90;;;;;;5036255;28;20202;-73
2022/12/06 10:49:51;;;;;;;11.77;6.40;;;6.20;99.90;;;;;;5018260;28;20182;-75
2022/12/06 10:52:41;;;;;;;10.17;6.00;;;6.20;99.90;;;;;;5019503;28;20193;-76
2022/12/06 10:55:11;;;;;;;8.93;6.10;;;6.20;99.90;;;;;;5027465;28;20186;-74
2022/12/06 10:58:01;;;;;;;8.27;5.50;;;6.30;99.90;;;;;;5023332;28;20196;-75
2022/12/06 11:00:36;;;;;;;8.57;5.73;;;6.20;99.90;;;;;;5028000;28;20197;-74
2022/12/06 11:03:19;;;;;;;7.60;5.33;;;6.20;99.90;;;;;;5004759;28;20182;-74
2022/12/06 11:05:50;;;;;;;8.37;5.33;;;6.30;99.90;;;;;;5013496;28;20173;-74
2022/12/06 11:08:25;;;;;;;6.67;5.00;;;6.30;99.90;;;;;;5024935;28;20273;-74
2022/12/06 11:10:59;;;;;;;7.93;5.27;;;6.30;99.90;;;;;;5012963;28;20170;-74
2022/12/06 11:13:46;;;;;;;7.73;5.30;;;6.30;99.90;;;;;;5016169;28;20195;-75
2022/12/06 11:16:23;;;;;;;8.47;5.60;;;6.30;99.90;;;;;;5023603;28;20205;-74
2022/12/06 11:18:49;;;;;;;8.37;5.53;;;6.40;99.90;;;;;;5018573;28;20181;-74
2022/12/06 11:21:33;;;;;;;8.03;5.77;;;6.30;99.90;;;;;;5020588;28;20174;-74
2022/12/06 11:24:06;;;;;;;8.10;5.87;;;6.30;99.90;;;;;;5025092;28;20177;-74
2022/12/06 11:26:53;;;;;;;9.40;5.50;;;6.30;99.90;;;;;;5005074;28;20169;-73
2022/12/06 11:29:19;;;;;;;8.87;6.10;;;6.30;99.90;;;;;;4999114;28;20159;-74
2022/12/06 11:31:55;;;;;;;7.27;5.40;;;6.30;99.90;;;;;;5020780;28;20185;-74
2022/12/06 11:34:40;;;;;;;8.50;5.47;;;6.30;99.90;;;;;;5035752;28;20188;-74
2022/12/06 11:37:14;;;;;;;7.27;5.37;;;6.30;99.90;;;;;;5014190;28;20191;-74
2022/12/06 11:39:39;;;;;;;8.13;5.87;;;6.30;99.90;;;;;;5017707;28;20174;-73
2022/12/06 11:42:08;;;;;;;9.10;6.40;;;6.40;99.90;;;;;;5017010;28;20190;-75
2022/12/06 11:44:49;;;;;;;6.90;5.53;;;6.40;99.90;;;;;;5015410;28;20178;-74
2022/12/06 11:47:18;;;;;;;8.07;5.97;;;6.40;99.90;;;;;;5017371;28;20283;-75
2022/12/06 11:49:45;;;;;;;8.40;6.53;;;6.40;99.90;;;;;;5016837;28;20185;-74
2022/12/06 11:52:20;;;;;;;9.37;7.43;;;6.40;99.90;;;;;;5030328;28;20189;-73
2022/12/06 11:54:56;;;;;;;10.13;7.03;;;6.40;99.90;;;;;;5009851;28;20167;-74
2022/12/06 11:57:27;;;;;;;9.67;7.00;;;6.50;99.90;;;;;;5028305;28;20188;-75
2022/12/06 12:00:12;;;;;;;8.67;6.53;;;6.40;99.90;;;;;;5041795;28;20177;-74
2022/12/06 12:02:39;;;;;;;10.53;7.67;;;6.40;99.90;;;;;;5031427;28;20186;-74
2022/12/06 12:05:21;;;;;;;13.67;8.90;;;6.40;99.90;;;;;;5022347;28;20189;-74
2022/12/06 12:07:52;;;;;;;11.77;8.53;;;6.50;99.90;;;;;;5009829;28;20185;-74
2022/12/06 12:10:33;;;;;;;10.47;7.43;;;6.40;99.90;;;;;;5021481;28;20402;-74
2022/12/06 12:16:00;;;;;;;10.87;8.07;;;6.50;99.90;;;;;;5034334;28;20197;-75
2022/12/06 12:18:33;;;;;;;11.20;7.50;;;6.50;99.90;;;;;;5017023;28;20189;-75
2022/12/06 12:21:03;;;;;;;10.67;7.57;;;6.50;99.90;;;;;;5017165;28;20174;-75
2022/12/06 12:23:34;;;;;;;9.53;6.90;;;6.60;99.90;;;;;;5033600;28;20240;-75
2022/12/06 12:26:08;;;;;;;10.67;6.90;;;6.50;99.90;;;;;;5013578;28;20197;-75
2022/12/06 12:28:34;;;;;;;10.53;6.53;;;6.50;99.90;;;;;;5015267;28;20281;-75
2022/12/06 12:31:18;;;;;;;11.20;7.67;;;6.50;99.90;;;;;;5010435;28;20197;-75
2022/12/06 12:33:44;;;;;;;10.03;7.30;;;6.50;99.90;;;;;;5014837;28;20208;-74
2022/12/06 12:36:22;;;;;;;8.57;6.20;;;6.60;99.90;;;;;;5024764;28;20205;-74
2022/12/06 12:39:00;;;;;;;9.07;6.20;;;6.60;99.90;;;;;;5017049;28;20235;-74
2022/12/06 12:41:42;;;;;;;8.97;5.80;;;6.60;99.90;;;;;;5031904;28;20192;-73
2022/12/06 12:44:33;;;;;;;9.87;6.40;;;6.60;99.90;;;;;;5025925;28;20460;-74
2022/12/06 12:47:12;;;;;;;8.47;6.20;;;6.60;99.90;;;;;;5027837;28;20192;-74
2022/12/06 12:49:40;;;;;;;7.53;6.00;;;6.60;99.90;;;;;;5021475;28;20197;-74
2022/12/06 12:52:27;;;;;;;9.07;6.23;;;6.60;99.90;;;;;;5012688;28;20210;-74
2022/12/06 12:55:12;;;;;;;10.77;6.07;;;6.70;99.90;;;;;;5014447;28;20439;-74
2022/12/06 12:57:42;;;;;;;8.23;5.70;;;6.70;99.90;;;;;;5013259;28;20174;-74
2022/12/06 13:00:42;;;;;;;8.63;6.10;;;6.70;99.90;;;;;;5033822;28;20198;-75
2022/12/06 13:03:25;;;;;;;7.60;5.40;;;6.70;99.90;;;;;;5011235;28;20195;-73
2022/12/06 13:05:51;;;;;;;7.73;5.57;;;6.70;99.90;;;;;;5002434;28;20266;-72
2022/12/06 13:08:18;;;;;;;7.90;5.53;;;6.70;99.90;;;;;;5024310;28;20180;-72
2022/12/06 13:10:48;;;;;;;8.93;6.03;;;6.70;99.90;;;;;;5028627;28;20273;-73
2022/12/06 13:13:16;;;;;;;8.60;6.63;;;6.70;99.90;;;;;;5022341;28;20206;-72
2022/12/06 13:15:48;;;;;;;10.13;6.67;;;6.80;99.90;;;;;;5025227;28;20188;-72
2022/12/06 13:18:20;;;;;;;7.30;5.93;;;6.70;99.90;;;;;;5030229;28;20181;-73
2022/12/06 13:20:48;;;;;;;7.33;6.07;;;6.70;99.90;;;;;;5016710;28;20198;-73
2022/12/06 13:23:22;;;;;;;7.03;5.47;;;6.70;99.90;;;;;;5041071;28;20210;-74
2022/12/06 13:26:25;;;;;;;6.93;5.53;;;6.70;99.90;;;;;;5020762;28;20181;-73
2022/12/06 13:28:59;;;;;;;6.10;4.80;;;6.80;99.90;;;;;;5049558;28;20181;-72
2022/12/06 13:31:32;;;;;;;6.50;4.60;;;6.80;99.90;;;;;;5040043;28;20219;-73
2022/12/06 13:34:04;;;;;;;5.87;4.77;;;6.80;99.90;;;;;;4998202;28;20210;-73
2022/12/06 13:36:36;;;;;;;6.53;4.47;;;6.80;99.90;;;;;;5016935;28;20193;-73
2022/12/06 13:39:29;;;;;;;5.80;4.30;;;6.80;99.90;;;;;;5030416;28;20178;-73
2022/12/06 13:44:49;;;;;;;5.07;4.10;;;6.80;99.90;;;;;;5026768;28;20197;-72
2022/12/06 13:47:29;;;;;;;5.60;3.77;;;6.90;99.90;;;;;;5026396;28;20270;-73
2022/12/06 13:50:00;;;;;;;5.53;4.00;;;6.90;99.90;;;;;;5025611;28;20237;-74